createdAt,value
2019-01-21T00:02:57.889Z,21.03
2019-01-21T00:06:02.734Z,19.60
2019-01-21T00:09:07.870Z,20.67
2019-01-21T00:12:12.726Z,20.97
2019-01-21T00:15:17.557Z,21.93
2019-01-21T00:18:22.532Z,20.37
2019-01-21T00:21:27.382Z,21.87
2019-01-21T00:24:32.910Z,22.13
2019-01-21T00:27:37.916Z,21.33
2019-01-21T00:30:42.820Z,22.97
2019-01-21T00:33:47.661Z,23.23
2019-01-21T00:36:52.495Z,23.60
2019-01-21T00:39:57.326Z,25.30
2019-01-21T00:43:02.198Z,23.50
2019-01-21T00:46:07.020Z,22.63
2019-01-21T00:49:11.893Z,22.63
2019-01-21T00:52:16.734Z,22.60
2019-01-21T00:55:21.564Z,21.80
2019-01-21T00:58:26.419Z,20.80
2019-01-21T01:01:31.276Z,22.13
2019-01-21T01:04:36.100Z,22.40
2019-01-21T01:07:40.963Z,22.98
2019-01-21T01:10:45.821Z,21.97
2019-01-21T01:13:50.686Z,20.70
2019-01-21T01:16:55.546Z,22.07
2019-01-21T01:20:01.975Z,23.00
2019-01-21T01:23:06.925Z,21.67
2019-01-21T01:26:11.765Z,22.40
2019-01-21T01:29:16.681Z,20.93
2019-01-21T01:32:21.627Z,21.03
2019-01-21T01:35:26.486Z,20.03
2019-01-21T01:38:31.389Z,22.87
2019-01-21T01:41:36.254Z,21.75
2019-01-21T01:44:41.188Z,21.33
2019-01-21T01:47:46.090Z,19.57
2019-01-21T01:50:52.025Z,19.63
2019-01-21T01:53:56.967Z,21.70
2019-01-21T01:57:01.805Z,20.27
2019-01-21T02:00:12.650Z,19.90
2019-01-21T02:03:17.579Z,19.77
2019-01-21T02:06:22.426Z,21.07
2019-01-21T02:09:27.306Z,20.10
2019-01-21T02:12:32.246Z,21.57
2019-01-21T02:15:37.294Z,21.70
2019-01-21T02:18:42.153Z,21.60
2019-01-21T02:21:47.789Z,22.50
2019-01-21T02:24:54.054Z,20.43
2019-01-21T02:28:24.726Z,22.23
2019-01-21T02:31:50.827Z,22.40
2019-01-21T02:34:59.030Z,20.47
2019-01-21T02:38:33.631Z,21.43
2019-01-21T02:41:40.337Z,20.07
2019-01-21T02:44:56.739Z,20.67
2019-01-21T02:48:07.352Z,23.83
2019-01-21T02:51:26.564Z,22.07
2019-01-21T02:54:46.302Z,21.97
2019-01-21T02:58:10.573Z,20.43
2019-01-21T03:01:34.365Z,20.10
2019-01-21T03:04:54.314Z,22.13
2019-01-21T03:08:04.750Z,22.70
2019-01-21T03:11:37.237Z,21.03
2019-01-21T03:15:21.377Z,22.00
2019-01-21T03:18:50.022Z,23.13
2019-01-21T03:22:03.283Z,22.07
2019-01-21T03:25:30.953Z,21.13
2019-01-21T03:28:50.530Z,23.67
2019-01-21T03:32:17.922Z,24.53
2019-01-21T03:36:00.857Z,21.30
2019-01-21T03:39:17.939Z,23.93
2019-01-21T03:42:31.711Z,24.70
2019-01-21T03:46:03.334Z,24.60
2019-01-21T03:49:14.394Z,24.53
2019-01-21T03:52:39.281Z,22.27
2019-01-21T03:55:45.056Z,22.87
2019-01-21T03:59:20.962Z,22.90
2019-01-21T04:02:58.280Z,21.90
2019-01-21T04:06:12.036Z,22.50
2019-01-21T04:09:28.775Z,24.33
2019-01-21T04:12:36.868Z,22.47
2019-01-21T04:16:20.268Z,19.90
2019-01-21T04:19:37.182Z,20.47
2019-01-21T04:22:53.382Z,20.73
2019-01-21T04:26:19.697Z,23.13
2019-01-21T04:29:48.922Z,23.87
2019-01-21T04:32:59.977Z,24.67
2019-01-21T04:36:25.326Z,24.23
2019-01-21T04:39:49.046Z,22.10
2019-01-21T04:43:21.779Z,23.53
2019-01-21T04:46:36.459Z,23.90
2019-01-21T04:49:46.967Z,24.47
2019-01-21T04:53:00.436Z,24.87
2019-01-21T04:56:25.266Z,25.20
2019-01-21T04:59:45.063Z,23.83
2019-01-21T05:03:10.121Z,23.10
2019-01-21T05:06:41.849Z,26.73
2019-01-21T05:09:55.639Z,24.73
2019-01-21T05:13:22.940Z,24.27
2019-01-21T05:16:33.876Z,24.33
2019-01-21T05:19:41.858Z,24.33
2019-01-21T05:22:55.478Z,26.07
2019-01-21T05:26:06.454Z,23.70
2019-01-21T05:29:19.943Z,25.00
2019-01-21T05:32:27.983Z,25.10
2019-01-21T05:35:41.677Z,24.17
2019-01-21T05:38:52.515Z,25.48
2019-01-21T05:42:17.042Z,24.73
2019-01-21T05:45:48.015Z,25.43
2019-01-21T05:49:11.369Z,25.72
2019-01-21T05:52:25.296Z,25.10
2019-01-21T05:55:48.441Z,26.97
2019-01-21T05:59:10.810Z,26.27
2019-01-21T06:02:33.583Z,25.87
2019-01-21T06:06:00.612Z,26.77
2019-01-21T06:09:17.583Z,25.33
2019-01-21T06:12:28.335Z,22.80
2019-01-21T06:15:41.799Z,23.70
2019-01-21T06:18:58.874Z,25.47
2019-01-21T06:22:21.837Z,24.83
2019-01-21T06:25:58.051Z,25.68
2019-01-21T06:29:20.897Z,28.17
2019-01-21T06:32:47.002Z,26.73
2019-01-21T06:35:57.513Z,28.30
2019-01-21T06:39:29.746Z,27.73
2019-01-21T06:42:52.692Z,28.23
2019-01-21T06:46:09.562Z,27.57
2019-01-21T06:49:30.431Z,26.80
2019-01-21T06:52:46.802Z,27.23
2019-01-21T06:56:26.356Z,27.10
2019-01-21T06:59:34.274Z,26.50
2019-01-21T07:03:04.800Z,26.13
2019-01-21T07:06:15.451Z,25.68
2019-01-21T07:09:31.934Z,26.00
2019-01-21T07:12:51.926Z,28.43
2019-01-21T07:16:20.894Z,28.80
2019-01-21T07:19:32.080Z,29.27
2019-01-21T07:23:07.689Z,31.20
2019-01-21T07:26:19.875Z,29.73
2019-01-21T07:29:36.269Z,31.37
2019-01-21T07:33:06.878Z,31.77
2019-01-21T07:36:15.394Z,32.13
2019-01-21T07:39:26.740Z,30.50
2019-01-21T07:42:49.644Z,31.70
2019-01-21T07:46:12.809Z,30.88
2019-01-21T07:49:38.783Z,31.17
2019-01-21T07:52:58.938Z,30.83
2019-01-21T07:56:18.650Z,31.87
2019-01-21T07:59:41.743Z,29.20
2019-01-21T08:03:05.145Z,30.57
2019-01-21T08:06:38.602Z,28.43
2019-01-21T08:10:01.597Z,26.50
2019-01-21T08:13:15.332Z,27.00
2019-01-21T08:16:29.011Z,26.02
2019-01-21T08:19:42.937Z,30.83
2019-01-21T08:23:02.705Z,31.10
2019-01-21T08:26:18.874Z,31.00
2019-01-21T08:29:26.808Z,31.27
2019-01-21T08:32:37.431Z,34.70
2019-01-21T08:36:20.347Z,28.53
2019-01-21T08:39:34.251Z,27.90
2019-01-21T08:42:51.949Z,28.23
2019-01-21T08:46:12.433Z,27.02
2019-01-21T08:49:40.433Z,29.87
2019-01-21T08:52:51.295Z,30.30
2019-01-21T08:56:01.979Z,28.05
2019-01-21T08:59:12.674Z,27.20
2019-01-21T09:02:29.631Z,29.18
2019-01-21T09:05:52.703Z,29.13
2019-01-21T09:09:32.770Z,30.73
2019-01-21T09:12:43.629Z,27.93
2019-01-21T09:15:51.547Z,29.90
2019-01-21T09:19:17.174Z,27.85
2019-01-21T09:22:30.760Z,30.17
2019-01-21T09:25:41.524Z,29.47
2019-01-21T09:29:08.932Z,27.67
2019-01-21T09:32:22.827Z,28.63
2019-01-21T09:35:51.694Z,31.23
2019-01-21T09:39:02.274Z,29.18
2019-01-21T09:42:35.700Z,29.90
2019-01-21T09:46:04.348Z,30.80
2019-01-21T09:49:08.139Z,30.77
2019-01-21T09:52:16.353Z,33.13
2019-01-21T09:55:23.616Z,30.60
2019-01-21T09:58:31.274Z,31.33
2019-01-21T10:01:36.536Z,29.90
2019-01-21T10:04:44.094Z,30.45
2019-01-21T10:07:54.878Z,30.57
2019-01-21T10:11:03.457Z,29.63
2019-01-21T10:14:30.011Z,26.83
2019-01-21T10:17:53.113Z,28.30
2019-01-21T10:21:18.624Z,29.10
2019-01-21T10:24:37.790Z,31.40
2019-01-21T10:27:51.766Z,29.43
2019-01-21T10:31:02.446Z,30.17
2019-01-21T10:34:46.918Z,32.97
2019-01-21T10:38:17.046Z,31.23
2019-01-21T10:41:27.770Z,29.92
2019-01-21T10:44:38.633Z,30.17
2019-01-21T10:47:51.847Z,33.03
2019-01-21T10:51:03.603Z,34.60
2019-01-21T10:54:14.208Z,34.83
2019-01-21T10:57:27.870Z,33.30
2019-01-21T11:01:03.785Z,33.70
2019-01-21T11:04:14.682Z,29.70
2019-01-21T11:07:31.560Z,33.00
2019-01-21T11:10:58.674Z,33.70
2019-01-21T11:14:35.346Z,34.73
2019-01-21T11:18:01.358Z,33.63
2019-01-21T11:21:11.896Z,32.73
2019-01-21T11:24:22.562Z,33.90
2019-01-21T11:27:42.134Z,32.83
2019-01-21T11:30:52.768Z,33.37
2019-01-21T11:34:31.260Z,33.43
2019-01-21T11:37:54.278Z,32.83
2019-01-21T11:41:18.730Z,30.70
2019-01-21T11:44:44.680Z,31.47
2019-01-21T11:48:08.890Z,31.40
2019-01-21T11:51:37.395Z,31.00
2019-01-21T11:54:57.335Z,31.23
2019-01-21T11:58:10.750Z,30.93
2019-01-21T12:01:44.139Z,31.00
2019-01-21T12:04:52.145Z,30.83
2019-01-21T12:08:12.206Z,31.60
2019-01-21T12:11:22.901Z,33.20
2019-01-21T12:14:39.886Z,31.33
2019-01-21T12:17:53.639Z,31.07
2019-01-21T12:21:09.801Z,29.63
2019-01-21T12:24:17.374Z,30.07
2019-01-21T12:27:33.707Z,29.93
2019-01-21T12:30:44.584Z,29.03
2019-01-21T12:34:01.187Z,29.65
2019-01-21T12:37:09.107Z,30.15
2019-01-21T12:40:29.098Z,27.73
2019-01-21T12:43:42.544Z,27.30
2019-01-21T12:46:50.521Z,29.20
2019-01-21T12:50:31.921Z,26.90
2019-01-21T12:53:42.973Z,27.77
2019-01-21T12:57:02.950Z,28.27
2019-01-21T13:00:20.058Z,28.23
2019-01-21T13:03:43.143Z,27.87
2019-01-21T13:07:05.901Z,29.63
2019-01-21T13:10:25.175Z,29.97
2019-01-21T13:13:36.036Z,31.00
2019-01-21T13:16:44.094Z,30.63
2019-01-21T13:19:57.682Z,32.80
2019-01-21T13:23:05.753Z,30.67
2019-01-21T13:26:19.871Z,31.60
2019-01-21T13:29:27.835Z,30.23
2019-01-21T13:32:38.413Z,31.83
2019-01-21T13:35:46.441Z,32.35
2019-01-21T13:38:54.433Z,30.50
2019-01-21T13:42:02.406Z,30.82
2019-01-21T13:45:40.891Z,31.63
2019-01-21T13:48:54.877Z,31.35
2019-01-21T13:52:23.558Z,29.63
2019-01-21T13:55:31.539Z,30.30
2019-01-21T13:58:54.486Z,30.93
2019-01-21T14:02:11.366Z,29.72
2019-01-21T14:05:31.077Z,31.03
2019-01-21T14:08:46.885Z,31.15
2019-01-21T14:12:14.136Z,29.77
2019-01-21T14:15:37.218Z,29.77
2019-01-21T14:18:55.073Z,28.80
2019-01-21T14:22:19.746Z,29.50
2019-01-21T14:25:44.321Z,30.83
2019-01-21T14:29:00.571Z,31.33
2019-01-21T14:32:17.358Z,28.67
2019-01-21T14:35:34.229Z,29.60
2019-01-21T14:38:50.605Z,28.60
2019-01-21T14:42:06.733Z,30.00
2019-01-21T14:45:29.446Z,30.10
2019-01-21T14:48:46.096Z,31.13
2019-01-21T14:52:10.589Z,30.60
2019-01-21T14:55:37.912Z,29.50
2019-01-21T14:59:05.431Z,29.47
2019-01-21T15:02:28.260Z,30.57
2019-01-21T15:06:00.852Z,28.43
2019-01-21T15:09:14.838Z,29.90
2019-01-21T15:12:31.415Z,29.77
2019-01-21T15:15:48.091Z,28.97
2019-01-21T15:18:58.823Z,28.00
2019-01-21T15:22:15.926Z,30.57
2019-01-21T15:25:29.871Z,30.97
2019-01-21T15:28:40.552Z,30.27
2019-01-21T15:31:51.468Z,31.33
2019-01-21T15:35:32.907Z,33.23
2019-01-21T15:38:46.690Z,29.93
2019-01-21T15:42:13.181Z,31.33
2019-01-21T15:45:36.394Z,32.17
2019-01-21T15:48:56.021Z,32.13
2019-01-21T15:52:23.803Z,32.07
2019-01-21T15:55:34.398Z,32.97
2019-01-21T15:58:42.317Z,32.13
2019-01-21T16:01:50.266Z,31.63
2019-01-21T16:05:01.037Z,32.53
2019-01-21T16:08:08.966Z,32.33
2019-01-21T16:11:43.541Z,31.63
2019-01-21T16:14:53.952Z,34.23
2019-01-21T16:18:21.139Z,32.63
2019-01-21T16:21:37.747Z,32.87
2019-01-21T16:24:48.633Z,32.60
2019-01-21T16:28:16.082Z,34.73
2019-01-21T16:31:24.191Z,34.33
2019-01-21T16:34:49.985Z,34.07
2019-01-21T16:38:00.486Z,36.53
2019-01-21T16:41:14.373Z,35.30
2019-01-21T16:44:19.225Z,35.63
2019-01-21T16:47:24.198Z,35.63
2019-01-21T16:50:29.802Z,35.20
2019-01-21T16:53:34.743Z,34.73
2019-01-21T16:56:39.653Z,35.20
2019-01-21T16:59:44.618Z,35.60
2019-01-21T17:02:49.489Z,38.25
2019-01-21T17:05:54.351Z,35.17
2019-01-21T17:09:00.178Z,36.13
2019-01-21T17:12:05.147Z,36.03
2019-01-21T17:15:12.491Z,36.25
2019-01-21T17:18:17.825Z,36.70
2019-01-21T17:21:27.043Z,34.10
2019-01-21T17:24:30.926Z,35.17
2019-01-21T17:27:36.350Z,34.57
2019-01-21T17:30:42.446Z,35.53
2019-01-21T17:33:47.325Z,35.43
2019-01-21T17:36:52.263Z,35.00
2019-01-21T17:39:57.220Z,37.07
2019-01-21T17:43:02.076Z,38.53
2019-01-21T17:46:06.962Z,37.93
2019-01-21T17:49:11.922Z,36.20
2019-01-21T17:52:17.731Z,37.67
2019-01-21T17:55:23.118Z,37.40
2019-01-21T17:58:27.931Z,38.90
2019-01-21T18:01:35.735Z,39.53
2019-01-21T18:04:39.317Z,37.03
2019-01-21T18:07:44.208Z,38.80
2019-01-21T18:10:50.075Z,38.83
2019-01-21T18:13:54.938Z,39.60
2019-01-21T18:16:59.837Z,41.53
2019-01-21T18:20:13.912Z,39.20
2019-01-21T18:23:18.847Z,39.87
2019-01-21T18:26:24.576Z,38.67
2019-01-21T18:29:29.487Z,39.30
2019-01-21T18:32:34.362Z,40.90
2019-01-21T18:35:39.194Z,40.37
2019-01-21T18:38:44.067Z,38.43
2019-01-21T18:41:49.003Z,41.50
2019-01-21T18:44:53.963Z,41.50
2019-01-21T18:47:58.976Z,40.97
2019-01-21T18:51:04.150Z,41.53
2019-01-21T18:54:09.005Z,43.17
2019-01-21T18:57:14.112Z,43.17
2019-01-21T19:00:21.297Z,41.80
2019-01-21T19:03:26.127Z,41.67
2019-01-21T19:06:31.016Z,40.50
2019-01-21T19:09:35.881Z,39.63
2019-01-21T19:12:40.830Z,41.60
2019-01-21T19:15:45.683Z,40.87
2019-01-21T19:18:50.546Z,38.93
2019-01-21T19:21:55.450Z,40.93
2019-01-21T19:25:00.333Z,41.70
2019-01-21T19:28:05.200Z,42.27
2019-01-21T19:31:10.033Z,40.03
2019-01-21T19:34:14.895Z,40.63
2019-01-21T19:37:21.248Z,41.88
2019-01-21T19:40:26.699Z,40.27
2019-01-21T19:43:31.798Z,42.07
2019-01-21T19:46:43.864Z,40.93
2019-01-21T19:49:44.038Z,41.15
2019-01-21T19:52:49.341Z,41.92
2019-01-21T19:55:54.359Z,43.87
2019-01-21T19:59:03.358Z,42.43
2019-01-21T20:02:08.679Z,42.83
2019-01-21T20:05:13.965Z,41.33
2019-01-21T20:08:21.110Z,41.70
2019-01-21T20:11:27.339Z,43.00
2019-01-21T20:14:33.155Z,43.33
2019-01-21T20:17:38.144Z,42.87
2019-01-21T20:20:42.996Z,42.43
2019-01-21T20:23:47.860Z,45.30
2019-01-21T20:26:53.922Z,41.53
2019-01-21T20:29:58.868Z,44.07
2019-01-21T20:33:04.128Z,42.20
2019-01-21T20:36:09.144Z,40.70
2019-01-21T20:39:15.186Z,42.50
2019-01-21T20:42:20.103Z,41.67
2019-01-21T20:45:25.110Z,41.13
2019-01-21T20:48:31.830Z,42.88
2019-01-21T20:51:36.745Z,45.85
2019-01-21T20:54:41.667Z,43.20
2019-01-21T20:57:46.659Z,41.07
2019-01-21T21:00:51.535Z,46.10
2019-01-21T21:03:56.369Z,45.97
2019-01-21T21:07:01.396Z,43.43
2019-01-21T21:10:10.446Z,44.88
2019-01-21T21:13:15.394Z,44.90
2019-01-21T21:16:20.405Z,45.77
2019-01-21T21:19:26.342Z,44.43
2019-01-21T21:22:31.200Z,43.67
2019-01-21T21:25:36.090Z,45.63
2019-01-21T21:28:40.991Z,41.33
2019-01-21T21:31:45.934Z,44.17
2019-01-21T21:34:51.164Z,43.87
2019-01-21T21:37:56.267Z,44.17
2019-01-21T21:41:01.259Z,44.73
2019-01-21T21:44:06.359Z,46.90
2019-01-21T21:47:11.380Z,46.60
2019-01-21T21:50:27.943Z,46.00
2019-01-21T21:53:33.038Z,47.40
2019-01-21T21:56:37.996Z,47.30
2019-01-21T21:59:42.841Z,44.33
2019-01-21T22:02:47.791Z,46.15
2019-01-21T22:05:52.766Z,44.13
2019-01-21T22:08:57.698Z,48.40
2019-01-21T22:12:02.636Z,45.20
2019-01-21T22:15:13.290Z,46.87
2019-01-21T22:18:18.215Z,44.77
2019-01-21T22:21:23.375Z,46.00
2019-01-21T22:24:28.376Z,46.47
2019-01-21T22:27:33.314Z,45.53
2019-01-21T22:30:38.236Z,44.43
2019-01-21T22:33:43.340Z,41.40
2019-01-21T22:36:48.269Z,46.40
2019-01-21T22:39:53.190Z,43.23
2019-01-21T22:42:58.117Z,44.97
2019-01-21T22:46:02.981Z,44.93
2019-01-21T22:49:07.918Z,44.97
2019-01-21T22:52:12.858Z,45.73
2019-01-21T22:55:18.336Z,44.93
2019-01-21T22:58:23.277Z,46.70
2019-01-21T23:01:28.615Z,49.07
2019-01-21T23:04:33.450Z,45.67
2019-01-21T23:07:38.319Z,45.17
2019-01-21T23:10:43.271Z,44.18
2019-01-21T23:13:48.188Z,42.67
2019-01-21T23:16:53.530Z,44.60
2019-01-21T23:19:58.431Z,47.60
2019-01-21T23:23:03.299Z,42.57
2019-01-21T23:26:08.257Z,46.23
2019-01-21T23:29:13.138Z,45.00
2019-01-21T23:32:17.954Z,43.50
2019-01-21T23:35:22.794Z,46.13
2019-01-21T23:38:27.925Z,46.63
2019-01-21T23:41:32.782Z,48.17
2019-01-21T23:44:37.687Z,47.60
2019-01-21T23:47:42.701Z,47.07
2019-01-21T23:50:47.634Z,45.60
2019-01-21T23:53:52.546Z,48.47
2019-01-21T23:56:57.401Z,47.50
